Milton, Washington
Current Conditions -  °F | °C
As of 10:58 AM on Friday 21 Nov 2014 (Local Time) from KTCM Reporting Station
Light Rain Light Rain  
Wind Chill: 51°   Ceiling: 3400
Heat Index: 51°   Visibility: 10mi
Dew Point: 51°   Wind: 7mph
Humidity: 97%   Direction: 150°SSE
Pressure: 29.66"   Gusts: NA
Location:  47.25°N, 122.31°W
Report Text: KTCM 211858Z AUTO 15006KT 10SM -RA BKN034 OVC049 11/10 A2966 RMK AO2 SLP048 P0002 T01080103 $
Loading
Personal Weather Stations






























Interactive Weather Map New forecast layout! Learn more

10-Day Weather Forecast

Advertisements
Track Severe Weather on mobile